Time;durP1;ratioP1;P1;durP2;ratioP2;P2;SDS_P1;SDS_P2;PMS_P1;PMS_P2;Temp;Humidity;BMP_temperature;BMP_pressure;BME280_temperature;BME280_humidity;BME280_pressure;Samples;Min_cycle;Max_cycle;Signal;HPM_P1;HPM_P2
2022/07/24 00:01:29;;;;;;;0.00;0.00;;;;;;;17.23;100.00;98174.16;5099376;28;20059;-62
2022/07/24 00:03:59;;;;;;;0.00;0.00;;;;;;;17.27;100.00;98175.56;5099000;28;20040;-62
2022/07/24 00:06:26;;;;;;;0.00;0.00;;;;;;;17.36;100.00;98177.41;5098903;28;20093;-62
2022/07/24 00:08:54;;;;;;;0.00;0.00;;;;;;;17.49;100.00;98188.63;5098905;28;20048;-62
2022/07/24 00:11:22;;;;;;;0.00;0.00;;;;;;;17.60;100.00;98175.22;5098615;28;20063;-62
2022/07/24 00:13:50;;;;;;;0.00;0.00;;;;;;;17.70;100.00;98178.72;5098646;28;20051;-61
2022/07/24 00:16:17;;;;;;;0.00;0.00;;;;;;;17.73;100.00;98179.28;5098771;28;20126;-62
2022/07/24 00:18:45;;;;;;;0.00;0.00;;;;;;;17.81;100.00;98189.28;5098525;28;20308;-61
2022/07/24 00:21:15;;;;;;;0.00;0.00;;;;;;;17.89;100.00;98192.06;5098537;28;20043;-61
2022/07/24 00:23:44;;;;;;;0.00;0.00;;;;;;;17.98;100.00;98191.22;5098625;28;20439;-62
2022/07/24 00:26:11;;;;;;;0.00;0.00;;;;;;;18.02;100.00;98186.47;5098600;28;20126;-61
2022/07/24 00:28:39;;;;;;;0.00;0.00;;;;;;;17.99;100.00;98190.25;5098561;28;20377;-62
2022/07/24 00:31:07;;;;;;;0.00;0.00;;;;;;;18.02;100.00;98197.94;5098429;28;20067;-62
2022/07/24 00:33:35;;;;;;;0.00;0.00;;;;;;;18.02;100.00;98195.28;5098918;28;20101;-61
2022/07/24 00:36:02;;;;;;;0.00;0.00;;;;;;;18.02;100.00;98202.44;5098372;28;20044;-62
2022/07/24 00:38:31;;;;;;;0.00;0.00;;;;;;;18.01;100.00;98200.75;5098328;28;20040;-62
2022/07/24 00:40:58;;;;;;;0.00;0.00;;;;;;;18.05;100.00;98208.31;5098258;28;20044;-62
2022/07/24 00:43:26;;;;;;;0.00;0.00;;;;;;;18.10;100.00;98216.75;5098302;28;20047;-61
2022/07/24 00:45:54;;;;;;;0.00;0.00;;;;;;;18.05;100.00;98213.63;5098283;28;20051;-61
2022/07/24 00:48:21;;;;;;;0.00;0.00;;;;;;;18.02;100.00;98218.41;5098257;28;20060;-62
2022/07/24 00:50:49;;;;;;;0.00;0.00;;;;;;;17.97;100.00;98215.31;5098269;28;20043;-62
2022/07/24 00:53:17;;;;;;;0.00;0.00;;;;;;;17.95;100.00;98219.97;5098043;28;20347;-62
2022/07/24 00:55:46;;;;;;;0.00;0.00;;;;;;;17.91;100.00;98222.03;5098322;28;20394;-63
2022/07/24 00:58:14;;;;;;;0.00;0.00;;;;;;;17.91;100.00;98213.22;5097849;28;20127;-61
2022/07/24 01:00:41;;;;;;;0.00;0.00;;;;;;;17.87;100.00;98215.31;5097906;28;20101;-62
2022/07/24 01:03:09;;;;;;;0.00;0.00;;;;;;;17.89;100.00;98218.69;5097896;28;20040;-62
2022/07/24 01:05:37;;;;;;;0.00;0.00;;;;;;;17.91;100.00;98221.22;5096829;28;20358;-62
2022/07/24 01:08:05;;;;;;;0.00;0.00;;;;;;;17.87;100.00;98225.97;5097894;28;20043;-61
2022/07/24 01:10:32;;;;;;;0.00;0.00;;;;;;;17.83;100.00;98221.91;5097667;28;20055;-62
2022/07/24 01:13:02;;;;;;;0.00;0.00;;;;;;;17.77;100.00;98216.25;5098008;28;20347;-62
2022/07/24 01:15:29;;;;;;;0.00;0.00;;;;;;;17.76;100.00;98214.59;5097698;28;20370;-62
2022/07/24 01:17:57;;;;;;;0.00;0.00;;;;;;;17.73;100.00;98221.00;5097653;28;20054;-62
2022/07/24 01:20:24;;;;;;;0.00;0.00;;;;;;;17.70;100.00;98213.31;5097530;28;20044;-62
2022/07/24 01:22:53;;;;;;;0.00;0.00;;;;;;;17.67;100.00;98225.06;5097570;28;20039;-61
2022/07/24 01:25:20;;;;;;;0.00;0.00;;;;;;;17.66;100.00;98211.91;5097421;28;20048;-61
2022/07/24 01:27:48;;;;;;;0.00;0.00;;;;;;;17.62;100.00;98221.97;5097482;28;20339;-62
2022/07/24 01:30:15;;;;;;;0.00;0.00;;;;;;;17.60;100.00;98218.63;5097747;28;20086;-61
2022/07/24 01:32:43;;;;;;;0.00;0.00;;;;;;;17.61;100.00;98211.47;5097560;28;20046;-61
2022/07/24 01:35:10;;;;;;;0.00;0.00;;;;;;;17.61;100.00;98214.13;5097491;28;20044;-62
2022/07/24 01:37:38;;;;;;;0.00;0.00;;;;;;;17.61;100.00;98216.78;5097614;28;20051;-61
2022/07/24 01:40:07;;;;;;;0.00;0.00;;;;;;;17.52;100.00;98218.44;5097102;28;20438;-62
2022/07/24 01:42:35;;;;;;;0.00;0.00;;;;;;;17.55;100.00;98218.19;5097310;28;20340;-62
2022/07/24 01:45:02;;;;;;;0.00;0.00;;;;;;;17.51;100.00;98218.59;5096944;28;20044;-62
2022/07/24 01:47:30;;;;;;;0.00;0.00;;;;;;;17.51;100.00;98219.44;5097190;28;20052;-62
2022/07/24 01:49:57;;;;;;;0.00;0.00;;;;;;;17.58;100.00;98222.38;5097145;28;20040;-62
2022/07/24 01:52:26;;;;;;;0.00;0.00;;;;;;;17.57;100.00;98215.38;5096984;28;20465;-62
2022/07/24 01:54:53;;;;;;;0.00;0.00;;;;;;;17.54;100.00;98219.16;5097371;28;20115;-61
2022/07/24 01:57:22;;;;;;;0.00;0.00;;;;;;;17.47;100.00;98210.06;5097327;28;20335;-62
2022/07/24 01:59:50;;;;;;;0.00;0.00;;;;;;;17.48;100.00;98213.56;5096840;28;20036;-62
2022/07/24 02:02:17;;;;;;;0.00;0.00;;;;;;;17.45;100.00;98206.72;5096973;28;20062;-62
2022/07/24 02:04:45;;;;;;;0.00;0.00;;;;;;;17.41;100.00;98201.78;5096934;28;20047;-62
2022/07/24 02:07:13;;;;;;;0.00;0.00;;;;;;;17.31;100.00;98216.88;5097134;28;20419;-62
2022/07/24 02:09:40;;;;;;;0.00;0.00;;;;;;;17.22;100.00;98212.38;5096836;28;20040;-61
2022/07/24 02:12:08;;;;;;;0.00;0.00;;;;;;;17.08;100.00;98207.44;5096851;28;20041;-61
2022/07/24 02:14:37;;;;;;;0.00;0.00;;;;;;;17.00;100.00;98210.75;5096710;28;20046;-63
2022/07/24 02:17:05;;;;;;;0.00;0.00;;;;;;;16.97;100.00;98218.16;5096847;28;20040;-62
2022/07/24 02:19:32;;;;;;;0.00;0.00;;;;;;;16.90;100.00;98223.13;5096563;28;20059;-62
2022/07/24 02:22:00;;;;;;;0.00;0.00;;;;;;;16.82;100.00;98219.44;5096793;28;20044;-62
2022/07/24 02:24:27;;;;;;;0.00;0.00;;;;;;;16.77;100.00;98225.16;5096920;28;20040;-62
2022/07/24 02:26:55;;;;;;;0.00;0.00;;;;;;;16.72;100.00;98226.53;5096810;28;20048;-62
2022/07/24 02:29:22;;;;;;;0.00;0.00;;;;;;;16.67;100.00;98226.91;5096788;28;20064;-61
2022/07/24 02:31:51;;;;;;;0.00;0.00;;;;;;;16.64;100.00;98231.66;5096647;28;20052;-62
2022/07/24 02:34:19;;;;;;;0.00;0.00;;;;;;;16.59;100.00;98231.22;5096977;28;20105;-62
2022/07/24 02:36:46;;;;;;;0.00;0.00;;;;;;;16.56;100.00;98234.94;5096907;28;20048;-62
2022/07/24 02:39:14;;;;;;;0.00;0.00;;;;;;;16.51;100.00;98234.50;5096781;28;20044;-61
2022/07/24 02:41:41;;;;;;;0.00;0.00;;;;;;;16.50;100.00;98235.50;5096614;28;20040;-62
2022/07/24 02:44:09;;;;;;;0.00;0.00;;;;;;;16.47;100.00;98240.22;5096645;28;20048;-62
2022/07/24 02:46:36;;;;;;;0.00;0.00;;;;;;;16.44;100.00;98230.69;5096488;28;20055;-61
2022/07/24 02:49:05;;;;;;;0.00;0.00;;;;;;;16.43;100.00;98238.78;5096671;28;20346;-62
2022/07/24 02:51:33;;;;;;;0.00;0.00;;;;;;;16.42;100.00;98237.97;5096518;28;20075;-62
2022/07/24 02:54:00;;;;;;;0.00;0.00;;;;;;;16.36;100.00;98242.91;5096514;28;20051;-63
2022/07/24 02:56:27;;;;;;;0.00;0.00;;;;;;;16.33;100.00;98241.38;5096987;28;20055;-62
2022/07/24 02:58:55;;;;;;;0.00;0.00;;;;;;;16.30;100.00;98243.47;5100087;28;20048;-62
2022/07/24 03:01:22;;;;;;;0.00;0.00;;;;;;;16.28;100.00;98240.94;5100274;28;20101;-62
2022/07/24 03:03:50;;;;;;;0.00;0.00;;;;;;;16.29;100.00;98250.56;5100348;28;20055;-62
2022/07/24 03:06:18;;;;;;;0.00;0.00;;;;;;;16.26;100.00;98260.63;5100221;28;20086;-62
2022/07/24 03:08:46;;;;;;;0.00;0.00;;;;;;;16.27;100.00;98257.81;5100620;28;20044;-61
2022/07/24 03:11:13;;;;;;;0.00;0.00;;;;;;;16.27;100.00;98257.81;5100139;28;20036;-61
2022/07/24 03:13:41;;;;;;;0.00;0.00;;;;;;;16.32;100.00;98255.63;5100145;28;20056;-62
2022/07/24 03:16:08;;;;;;;0.00;0.00;;;;;;;16.37;100.00;98260.56;5100176;28;20048;-62
2022/07/24 03:18:36;;;;;;;0.00;0.00;;;;;;;16.42;100.00;98266.31;5100247;28;20055;-62
2022/07/24 03:21:03;;;;;;;0.00;0.00;;;;;;;16.52;100.00;98261.94;5099916;28;20320;-62
2022/07/24 03:23:32;;;;;;;0.00;0.00;;;;;;;16.63;100.00;98267.19;5099883;28;20048;-62
2022/07/24 03:26:00;;;;;;;0.00;0.00;;;;;;;16.68;100.00;98271.13;5099758;28;20044;-62
2022/07/24 03:28:27;;;;;;;0.00;0.00;;;;;;;16.62;100.00;98273.44;5099890;28;20054;-61
2022/07/24 03:30:54;;;;;;;0.00;0.00;;;;;;;16.55;100.00;98275.78;5099641;28;20048;-62
2022/07/24 03:33:22;;;;;;;0.00;0.00;;;;;;;16.52;100.00;98281.34;5099696;28;20044;-61
2022/07/24 03:35:50;;;;;;;0.00;0.00;;;;;;;16.51;100.00;98268.19;5099593;28;20121;-61
2022/07/24 03:38:17;;;;;;;0.00;0.00;;;;;;;16.51;100.00;98278.81;5099600;28;20085;-62
2022/07/24 03:40:46;;;;;;;0.00;0.00;;;;;;;16.49;100.00;98283.44;5099368;28;20462;-62
2022/07/24 03:43:14;;;;;;;0.00;0.00;;;;;;;16.46;100.00;98275.72;5099468;28;20040;-62
2022/07/24 03:45:41;;;;;;;0.00;0.00;;;;;;;16.46;100.00;98273.06;5099528;28;20043;-62
2022/07/24 03:48:09;;;;;;;0.00;0.00;;;;;;;16.49;100.00;98281.59;5099464;28;20052;-62
2022/07/24 03:50:36;;;;;;;0.00;0.00;;;;;;;16.57;100.00;98283.63;5099227;28;20051;-62
2022/07/24 03:53:04;;;;;;;0.00;0.00;;;;;;;16.75;100.00;98277.56;5099190;28;20048;-61
2022/07/24 03:55:31;;;;;;;0.00;0.00;;;;;;;17.02;100.00;98271.75;5099293;28;20043;-62
2022/07/24 03:58:00;;;;;;;0.00;0.00;;;;;;;17.27;100.00;98277.47;5099450;28;20052;-62
2022/07/24 04:00:28;;;;;;;0.00;0.00;;;;;;;17.39;100.00;98291.50;5097549;28;20040;-62
2022/07/24 04:02:56;;;;;;;0.00;0.00;;;;;;;17.34;100.00;98281.28;5099094;28;20055;-62
2022/07/24 04:05:23;;;;;;;0.00;0.00;;;;;;;17.32;100.00;98288.53;5099688;28;20051;-61
2022/07/24 04:07:50;;;;;;;0.00;0.00;;;;;;;17.49;100.00;98281.75;5098549;28;20048;-61
2022/07/24 04:10:18;;;;;;;0.00;0.00;;;;;;;17.99;100.00;98283.44;5098406;28;20048;-62
2022/07/24 04:12:45;;;;;;;0.00;0.00;;;;;;;17.94;100.00;98285.66;5099029;28;20126;-61
2022/07/24 04:15:14;;;;;;;0.00;0.00;;;;;;;17.77;100.00;98293.44;5098780;28;20431;-62
2022/07/24 04:17:43;;;;;;;0.00;0.00;;;;;;;17.74;100.00;98291.91;5098838;28;20048;-62
2022/07/24 04:20:11;;;;;;;0.00;0.00;;;;;;;17.65;100.00;98295.38;5098999;28;20488;-62
2022/07/24 04:22:39;;;;;;;0.00;0.00;;;;;;;17.66;100.00;98291.75;5098740;28;20040;-61
2022/07/24 04:25:09;;;;;;;0.00;0.00;;;;;;;17.63;100.00;98308.81;5098837;28;20435;-62
2022/07/24 04:27:36;;;;;;;0.00;0.00;;;;;;;17.65;100.00;98308.66;5098901;28;20044;-61
2022/07/24 04:30:05;;;;;;;0.00;0.00;;;;;;;17.62;100.00;98306.28;5098546;28;20040;-61
2022/07/24 04:32:33;;;;;;;0.00;0.00;;;;;;;17.54;100.00;98311.44;5098577;28;20044;-62
2022/07/24 04:35:01;;;;;;;0.00;0.00;;;;;;;17.48;100.00;98315.47;5098377;28;20182;-61
2022/07/24 04:37:28;;;;;;;0.00;0.00;;;;;;;17.48;100.00;98317.31;5098349;28;20052;-62
2022/07/24 04:40:01;;;;;;;0.00;0.00;;;;;;;17.85;100.00;98315.78;5098414;28;20434;-62
2022/07/24 04:42:29;;;;;;;0.00;0.00;;;;;;;18.34;100.00;98315.69;5098348;28;20058;-61
2022/07/24 04:44:56;;;;;;;0.00;0.00;;;;;;;18.71;100.00;98319.38;5098234;28;20051;-62
2022/07/24 04:47:24;;;;;;;0.00;0.00;;;;;;;19.01;100.00;98313.84;5098052;28;20389;-62
2022/07/24 04:49:53;;;;;;;0.00;0.00;;;;;;;19.11;100.00;98321.81;5098128;28;20047;-62
2022/07/24 04:52:20;;;;;;;0.00;0.00;;;;;;;19.05;100.00;98325.88;5098356;28;20394;-61
2022/07/24 04:54:48;;;;;;;0.00;0.00;;;;;;;19.03;100.00;98341.22;5098077;28;20052;-62
2022/07/24 04:57:15;;;;;;;0.00;0.00;;;;;;;18.95;100.00;98346.44;5098201;28;20040;-62
2022/07/24 04:59:43;;;;;;;0.00;0.00;;;;;;;18.84;100.00;98346.59;5097842;28;20042;-61
2022/07/24 05:02:10;;;;;;;0.00;0.00;;;;;;;18.80;100.00;98345.19;5097891;28;20044;-62
2022/07/24 05:04:38;;;;;;;0.00;0.00;;;;;;;18.64;100.00;98346.75;5098161;28;20374;-62
2022/07/24 05:07:07;;;;;;;0.00;0.00;;;;;;;18.60;100.00;98343.47;5097861;28;20048;-62
2022/07/24 05:09:34;;;;;;;0.00;0.00;;;;;;;18.53;100.00;98336.19;5097783;28;20051;-61
2022/07/24 05:12:03;;;;;;;0.00;0.00;;;;;;;18.53;100.00;98346.84;5097747;28;20131;-61
2022/07/24 05:14:31;;;;;;;0.00;0.00;;;;;;;18.55;100.00;98345.72;5097485;28;20076;-61
2022/07/24 05:16:58;;;;;;;0.00;0.00;;;;;;;18.51;100.00;98344.31;5097873;28;20063;-61
2022/07/24 05:19:25;;;;;;;0.00;0.00;;;;;;;18.48;100.00;98346.41;5096449;28;20512;-61
2022/07/24 05:21:53;;;;;;;0.00;0.00;;;;;;;18.57;100.00;98349.06;5097650;28;20036;-62
2022/07/24 05:24:22;;;;;;;0.00;0.00;;;;;;;18.68;100.00;98351.63;5097550;28;20327;-61
2022/07/24 05:26:49;;;;;;;0.00;0.00;;;;;;;18.60;100.00;98351.47;5097895;28;20368;-60
2022/07/24 05:29:16;;;;;;;0.00;0.00;;;;;;;18.51;100.00;98362.13;5097429;28;20423;-61
2022/07/24 05:31:44;;;;;;;0.00;0.00;;;;;;;18.46;100.00;98357.19;5097455;28;20093;-61
2022/07/24 05:34:12;;;;;;;0.00;0.00;;;;;;;18.47;100.00;98356.25;5097008;28;20317;-61
2022/07/24 05:36:39;;;;;;;0.00;0.00;;;;;;;18.56;100.00;98350.06;5095554;28;20113;-61
2022/07/24 05:39:07;;;;;;;0.00;0.00;;;;;;;18.55;100.00;98360.84;5097072;28;20301;-62
2022/07/24 05:41:36;;;;;;;0.00;0.00;;;;;;;18.61;100.00;98358.47;5096717;28;20044;-61
2022/07/24 05:44:04;;;;;;;0.00;0.00;;;;;;;18.77;100.00;98361.47;5097424;28;20431;-61
2022/07/24 05:46:31;;;;;;;0.00;0.00;;;;;;;18.78;100.00;98363.13;5097071;28;20040;-61
2022/07/24 05:48:59;;;;;;;0.00;0.00;;;;;;;18.92;100.00;98354.72;5097147;28;20051;-61
2022/07/24 05:51:26;;;;;;;0.00;0.00;;;;;;;18.82;100.00;98359.19;5096787;28;20390;-61
2022/07/24 05:53:54;;;;;;;0.00;0.00;;;;;;;18.78;100.00;98365.81;5096997;28;20069;-61
2022/07/24 05:56:21;;;;;;;0.00;0.00;;;;;;;18.85;100.00;98366.91;5097281;28;20040;-61
2022/07/24 05:58:50;;;;;;;0.00;0.00;;;;;;;18.89;100.00;98360.31;5096981;28;20048;-60
2022/07/24 06:01:18;;;;;;;0.00;0.00;;;;;;;18.97;100.00;98357.78;5096736;28;20493;-61
2022/07/24 06:03:45;;;;;;;0.00;0.00;;;;;;;19.18;100.00;98355.78;5097100;28;20039;-61
2022/07/24 06:06:13;;;;;;;0.00;0.00;;;;;;;19.25;99.91;98359.56;5096995;28;20384;-61
2022/07/24 06:08:40;;;;;;;0.00;0.00;;;;;;;19.21;98.61;98358.16;5096780;28;20051;-61
2022/07/24 06:11:13;;;;;;;0.00;0.00;;;;;;;19.30;97.82;98357.28;5096810;28;20047;-61
2022/07/24 06:13:41;;;;;;;0.00;0.00;;;;;;;19.33;95.56;98356.16;5096595;28;20075;-61
2022/07/24 06:16:10;;;;;;;0.00;0.00;;;;;;;19.38;97.10;98360.06;5096775;28;20048;-61
2022/07/24 06:18:37;;;;;;;0.00;0.00;;;;;;;19.42;95.56;98366.00;5096676;28;20048;-61
2022/07/24 06:21:05;;;;;;;0.00;0.00;;;;;;;19.45;95.84;98363.03;5096345;28;20048;-61
2022/07/24 06:23:33;;;;;;;0.00;0.00;;;;;;;19.61;96.29;98363.25;5097277;28;20453;-62
2022/07/24 06:26:01;;;;;;;0.00;0.00;;;;;;;19.71;95.13;98369.41;5095884;28;20062;-61
2022/07/24 06:28:28;;;;;;;0.00;0.00;;;;;;;19.85;94.83;98372.41;5096322;28;20052;-60
2022/07/24 06:30:57;;;;;;;0.00;0.00;;;;;;;19.96;91.78;98372.22;5098862;28;20066;-61
2022/07/24 06:33:25;;;;;;;0.00;0.00;;;;;;;20.10;91.09;98365.53;5103158;28;20054;-60
2022/07/24 06:35:53;;;;;;;0.00;0.00;;;;;;;20.27;93.21;98370.94;5100537;28;20160;-61
2022/07/24 06:38:20;;;;;;;0.00;0.00;;;;;;;20.09;89.98;98374.53;5100597;28;20052;-61
2022/07/24 06:40:48;;;;;;;0.00;0.00;;;;;;;20.26;89.93;98377.28;5100563;28;20047;-61
2022/07/24 06:43:15;;;;;;;0.00;0.00;;;;;;;20.63;88.74;98367.31;5100796;28;20078;-62
2022/07/24 06:45:43;;;;;;;0.00;0.00;;;;;;;20.84;86.80;98360.81;5100494;28;20131;-62
2022/07/24 06:48:10;;;;;;;0.00;0.00;;;;;;;20.63;85.89;98374.50;5103828;28;20055;-61
2022/07/24 06:50:39;;;;;;;0.00;0.00;;;;;;;20.34;87.38;98373.88;5120491;28;20043;-61
2022/07/24 06:53:07;;;;;;;0.00;0.00;;;;;;;20.03;88.75;98378.66;5120751;28;20126;-60
2022/07/24 06:55:34;;;;;;;0.00;0.00;;;;;;;20.11;87.60;98373.41;5120695;28;20130;-60
2022/07/24 06:58:01;;;;;;;0.00;0.00;;;;;;;20.21;86.96;98374.22;5121117;28;20334;-60
2022/07/24 07:00:29;;;;;;;0.00;0.00;;;;;;;20.11;85.73;98376.06;5121158;28;20035;-60
2022/07/24 07:02:56;;;;;;;0.00;0.00;;;;;;;20.02;85.68;98370.78;5120718;28;20047;-61
2022/07/24 07:05:24;;;;;;;0.00;0.00;;;;;;;20.20;86.85;98371.69;5120712;28;20439;-61
2022/07/24 07:07:53;;;;;;;0.00;0.00;;;;;;;20.53;86.15;98374.53;5121005;28;20426;-61
2022/07/24 07:10:21;;;;;;;0.00;0.00;;;;;;;20.80;83.17;98370.13;5120416;28;20062;-61
2022/07/24 07:12:48;;;;;;;0.00;0.00;;;;;;;20.91;83.29;98368.06;5119707;28;20051;-60
2022/07/24 07:15:16;;;;;;;0.00;0.00;;;;;;;20.99;81.76;98364.66;5120298;28;20048;-61
2022/07/24 07:17:44;;;;;;;0.00;0.00;;;;;;;21.09;80.62;98373.41;5119407;28;20385;-61
2022/07/24 07:20:13;;;;;;;0.00;0.00;;;;;;;21.21;80.44;98364.16;5120424;28;20040;-61
2022/07/24 07:22:42;;;;;;;0.00;0.00;;;;;;;21.12;81.56;98367.75;5120477;28;20043;-61
2022/07/24 07:25:13;;;;;;;0.00;0.00;;;;;;;21.39;80.41;98370.28;5120730;28;20046;-61
2022/07/24 07:27:40;;;;;;;0.00;0.00;;;;;;;21.24;80.81;98369.16;5120246;28;20047;-61
2022/07/24 07:30:11;;;;;;;0.00;0.00;;;;;;;20.98;82.27;98379.00;5120141;28;20036;-61
2022/07/24 07:32:40;;;;;;;0.00;0.00;;;;;;;20.73;81.74;98377.09;5117514;28;20438;-62
2022/07/24 07:35:09;;;;;;;0.00;0.00;;;;;;;20.45;82.59;98387.00;5120116;28;20040;-62
2022/07/24 07:37:36;;;;;;;0.00;0.00;;;;;;;20.42;83.69;98379.28;5120144;28;20054;-61
2022/07/24 07:40:08;;;;;;;0.00;0.00;;;;;;;20.57;83.83;98385.78;5119666;28;20036;-60
2022/07/24 07:42:36;;;;;;;0.00;0.00;;;;;;;20.65;81.78;98388.53;5119200;28;20036;-62
2022/07/24 07:45:24;;;;;;;0.00;0.00;;;;;;;20.76;81.35;98382.97;5035657;28;20067;-61
2022/07/24 07:47:52;;;;;;;0.00;0.00;;;;;;;21.08;81.04;98382.44;5037435;28;20049;-60
2022/07/24 07:50:19;;;;;;;0.00;0.00;;;;;;;21.41;78.28;98381.66;5037222;28;20053;-60
2022/07/24 07:52:47;;;;;;;0.00;0.00;;;;;;;21.55;77.07;98383.75;5037279;28;20145;-60
2022/07/24 07:55:14;;;;;;;0.00;0.00;;;;;;;21.45;77.62;98388.38;5037168;28;20103;-62
2022/07/24 07:57:43;;;;;;;0.00;0.00;;;;;;;21.48;76.95;98380.03;5037282;28;20050;-61
2022/07/24 08:00:12;;;;;;;0.00;0.00;;;;;;;21.59;76.96;98379.78;5037070;28;20049;-61
2022/07/24 08:02:39;;;;;;;0.00;0.00;;;;;;;21.86;75.01;98383.13;5037188;28;20053;-62
2022/07/24 08:05:07;;;;;;;0.00;0.00;;;;;;;22.07;72.04;98372.00;5037092;28;20132;-61
2022/07/24 08:07:35;;;;;;;0.00;0.00;;;;;;;22.23;74.91;98372.88;5037173;28;20053;-61
2022/07/24 08:10:03;;;;;;;0.00;0.00;;;;;;;21.95;73.32;98381.34;5036953;28;20176;-62
2022/07/24 08:12:31;;;;;;;0.00;0.00;;;;;;;21.54;74.69;98387.44;5036514;28;20424;-61
2022/07/24 08:15:00;;;;;;;0.00;0.00;;;;;;;21.34;76.95;98385.97;5036785;28;20361;-61
2022/07/24 08:17:27;;;;;;;0.00;0.00;;;;;;;21.15;75.13;98386.16;5036643;28;20060;-60
2022/07/24 08:19:55;;;;;;;0.00;0.00;;;;;;;21.37;73.21;98383.81;5036486;28;20107;-61
2022/07/24 08:22:22;;;;;;;0.00;0.00;;;;;;;21.64;74.46;98391.72;5061273;28;20408;-61
2022/07/24 08:25:18;;;;;;;0.00;0.00;;;;;;;21.88;72.44;98386.47;5096419;28;20052;-61
2022/07/24 08:27:46;;;;;;;0.00;0.00;;;;;;;21.85;70.30;98384.13;5098645;28;20055;-61
2022/07/24 08:30:17;;;;;;;0.00;0.00;;;;;;;21.62;70.26;98390.16;5098757;28;20079;-60
2022/07/24 08:32:45;;;;;;;0.00;0.00;;;;;;;21.74;70.88;98387.09;5098612;28;20136;-60
2022/07/24 08:35:15;;;;;;;0.00;0.00;;;;;;;21.67;71.22;98390.56;5098340;28;20454;-60
2022/07/24 08:37:43;;;;;;;0.00;0.00;;;;;;;21.51;73.42;98401.16;5097960;28;20126;-60
2022/07/24 08:40:12;;;;;;;0.00;0.00;;;;;;;21.42;74.77;98405.59;5097806;28;20461;-61
2022/07/24 08:42:40;;;;;;;0.00;0.00;;;;;;;21.42;73.33;98394.03;5096351;28;20054;-60
2022/07/24 08:45:09;;;;;;;0.00;0.00;;;;;;;21.84;73.96;98392.34;5096709;28;20113;-60
2022/07/24 08:47:40;;;;;;;0.00;0.00;;;;;;;22.07;71.49;98401.47;5096771;28;20230;-60
2022/07/24 08:50:10;;;;;;;0.00;0.00;;;;;;;22.33;70.06;98392.41;5096461;28;20443;-60
2022/07/24 08:52:41;;;;;;;0.00;0.00;;;;;;;22.65;69.07;98395.13;5095961;28;20040;-60
2022/07/24 08:55:10;;;;;;;0.00;0.00;;;;;;;22.80;65.89;98395.34;5095100;28;20054;-61
2022/07/24 08:57:43;;;;;;;0.00;0.00;;;;;;;23.09;66.44;98385.81;5096059;28;20039;-61
2022/07/24 09:00:11;;;;;;;0.00;0.00;;;;;;;23.32;63.28;98381.44;5095964;28;20122;-60
2022/07/24 09:02:40;;;;;;;0.00;0.00;;;;;;;23.20;64.91;98387.34;5096009;28;20064;-60
2022/07/24 09:05:08;;;;;;;0.00;0.00;;;;;;;22.84;64.89;98388.63;5096487;28;20060;-60
2022/07/24 09:07:36;;;;;;;0.00;0.00;;;;;;;22.60;64.96;98405.53;5097919;28;20048;-60
2022/07/24 09:10:05;;;;;;;0.00;0.00;;;;;;;22.16;65.20;98401.34;5098080;28;20052;-61
2022/07/24 09:12:34;;;;;;;0.00;0.00;;;;;;;21.82;66.71;98407.72;5098554;28;20119;-61
2022/07/24 09:15:10;;;;;;;0.00;0.00;;;;;;;21.58;68.17;98404.88;5097914;28;20054;-60
2022/07/24 09:17:49;;;;;;;0.00;0.00;;;;;;;21.73;68.23;98400.66;5097800;28;20439;-61
2022/07/24 09:20:17;;;;;;;0.00;0.00;;;;;;;22.14;66.79;98398.00;5097160;28;20048;-61
2022/07/24 09:22:44;;;;;;;0.00;0.00;;;;;;;22.53;64.49;98393.78;5097451;28;20044;-61
2022/07/24 09:25:15;;;;;;;0.00;0.00;;;;;;;23.03;63.16;98386.50;5097652;28;20439;-61
2022/07/24 09:27:48;;;;;;;0.00;0.00;;;;;;;23.41;61.05;98382.25;5097602;28;20439;-60
2022/07/24 09:30:28;;;;;;;0.00;0.00;;;;;;;23.39;60.63;98386.97;5097376;28;20048;-61
2022/07/24 09:32:59;;;;;;;0.00;0.00;;;;;;;23.18;59.93;98398.25;5097378;28;20435;-61
2022/07/24 09:35:32;;;;;;;0.00;0.00;;;;;;;22.81;61.56;98402.38;5097906;28;20044;-61
2022/07/24 09:38:01;;;;;;;0.00;0.00;;;;;;;22.38;62.09;98402.59;5097152;28;20044;-61
2022/07/24 09:40:32;;;;;;;0.00;0.00;;;;;;;22.15;62.81;98402.34;5096746;28;20044;-61
2022/07/24 09:43:21;;;;;;;0.00;0.00;;;;;;;22.17;62.06;98403.00;5097574;28;20052;-61
2022/07/24 09:45:55;;;;;;;0.00;0.00;;;;;;;22.36;60.04;98396.59;5097359;28;20044;-61
2022/07/24 09:48:26;;;;;;;0.00;0.00;;;;;;;22.48;58.84;98397.94;5097462;28;20093;-60
2022/07/24 09:50:56;;;;;;;0.00;0.00;;;;;;;22.68;59.27;98391.31;5097153;28;20090;-60
2022/07/24 09:53:25;;;;;;;0.00;0.00;;;;;;;23.11;59.80;98389.19;5097543;28;20109;-61
2022/07/24 09:56:01;;;;;;;0.00;0.00;;;;;;;23.43;58.30;98374.88;5096324;28;20690;-61
2022/07/24 09:58:30;;;;;;;0.00;0.00;;;;;;;23.43;57.90;98382.94;5096786;28;20126;-60
2022/07/24 10:01:01;;;;;;;0.00;0.00;;;;;;;23.40;57.07;98385.97;5096792;28;20048;-61
2022/07/24 10:03:33;;;;;;;0.00;0.00;;;;;;;23.18;58.58;98383.97;5097175;28;20435;-61
2022/07/24 10:06:03;;;;;;;0.00;0.00;;;;;;;22.76;58.90;98389.44;5096689;28;20066;-61
2022/07/24 10:08:32;;;;;;;0.00;0.00;;;;;;;22.63;60.79;98390.94;5112775;28;20402;-60
2022/07/24 10:11:00;;;;;;;0.00;0.00;;;;;;;22.86;60.08;98386.59;5098803;28;20319;-60
2022/07/24 10:13:29;;;;;;;0.00;0.00;;;;;;;23.24;61.62;98383.31;5096699;28;20044;-60
2022/07/24 10:16:27;;;;;;;0.00;0.00;;;;;;;23.57;58.92;98369.63;5096669;28;20083;-61
2022/07/24 10:19:00;;;;;;;0.00;0.00;;;;;;;23.81;57.92;98374.13;5096793;28;20044;-60
2022/07/24 10:21:32;;;;;;;0.00;0.00;;;;;;;23.92;55.42;98379.13;5097007;28;20085;-61
2022/07/24 10:24:31;;;;;;;0.00;0.00;;;;;;;24.03;55.05;98378.75;5096763;28;20051;-60
2022/07/24 10:27:05;;;;;;;0.00;0.00;;;;;;;24.11;54.13;98367.13;5096688;28;20048;-61
2022/07/24 10:29:35;;;;;;;0.00;0.00;;;;;;;23.89;56.67;98374.09;5096640;28;20106;-61
2022/07/24 10:32:03;;;;;;;0.00;0.00;;;;;;;23.33;56.12;98374.22;5096808;28;20047;-60
2022/07/24 10:34:39;;;;;;;0.00;0.00;;;;;;;23.16;55.04;98378.75;5096658;28;20044;-61
2022/07/24 10:37:14;;;;;;;0.00;0.00;;;;;;;23.35;54.31;98374.91;5096680;28;20055;-60
2022/07/24 10:39:55;;;;;;;0.00;0.00;;;;;;;23.67;54.84;98364.09;5096573;28;20040;-60
2022/07/24 10:42:23;;;;;;;0.00;0.00;;;;;;;24.08;53.41;98371.03;5096805;28;20039;-60
2022/07/24 10:45:17;;;;;;;0.00;0.00;;;;;;;24.26;54.04;98376.13;5096703;28;20042;-60
2022/07/24 10:47:45;;;;;;;0.00;0.00;;;;;;;23.99;53.43;98369.38;5096181;28;20052;-60
2022/07/24 10:50:16;;;;;;;0.00;0.00;;;;;;;23.54;54.50;98374.53;5108218;28;20131;-60
2022/07/24 10:52:44;;;;;;;0.00;0.00;;;;;;;23.29;56.01;98376.41;5098587;28;20131;-60
2022/07/24 10:55:27;;;;;;;0.00;0.00;;;;;;;23.52;56.08;98372.00;5106059;28;20451;-60
2022/07/24 10:57:55;;;;;;;;;;;;;;;23.59;54.04;98366.78;5094435;28;20119;-61
2022/07/24 11:00:25;;;;;;;0.00;0.00;;;;;;;23.30;54.76;98363.81;5101025;28;20031;-57
2022/07/24 11:02:58;;;;;;;0.00;0.00;;;;;;;23.52;53.77;98363.09;5103378;28;20047;-59
2022/07/24 11:05:31;;;;;;;0.00;0.00;;;;;;;23.86;52.56;98361.03;5103231;28;20060;-59
2022/07/24 11:08:29;;;;;;;0.00;0.00;;;;;;;24.08;53.09;98356.72;5107413;28;20043;-60
2022/07/24 11:11:00;;;;;;;0.00;0.00;;;;;;;23.89;52.53;98360.66;5099946;28;20594;-59
2022/07/24 11:13:48;;;;;;;0.00;0.00;;;;;;;23.88;53.83;98353.63;5108009;28;20047;-60
2022/07/24 11:16:22;;;;;;;0.00;0.00;;;;;;;24.00;53.96;98352.22;5104252;28;20071;-59
2022/07/24 11:19:27;;;;;;;0.00;0.00;;;;;;;24.29;55.06;98348.91;5109140;28;20056;-60
2022/07/24 11:22:10;;;;;;;0.00;0.00;;;;;;;24.38;54.29;98334.41;5057709;28;20102;-60
2022/07/24 11:25:04;;;;;;;0.00;0.00;;;;;;;24.21;51.32;98347.06;5057757;28;20528;-60
2022/07/24 11:28:03;;;;;;;0.00;0.00;;;;;;;24.07;50.55;98345.13;5057982;28;20048;-59
2022/07/24 11:30:31;;;;;;;0.00;0.00;;;;;;;23.62;51.28;98339.56;5059214;28;20061;-60
2022/07/24 11:32:59;;;;;;;0.00;0.00;;;;;;;23.48;52.14;98342.97;5059096;28;20055;-61
2022/07/24 11:35:32;;;;;;;0.00;0.00;;;;;;;23.72;52.57;98344.78;5059398;28;20061;-60
2022/07/24 11:38:02;;;;;;;0.00;0.00;;;;;;;23.86;51.90;98341.38;5060956;28;20045;-60
2022/07/24 11:40:30;;;;;;;0.00;0.00;;;;;;;23.98;51.40;98334.59;5061235;28;20049;-60